Time;durP1;ratioP1;P1;durP2;ratioP2;P2;SDS_P1;SDS_P2;PMS_P1;PMS_P2;Temp;Humidity;BMP_temperature;BMP_pressure;BME280_temperature;BME280_humidity;BME280_pressure;Samples;Min_cycle;Max_cycle;Signal;HPM_P1;HPM_P2
2022/04/25 00:00:35;;;;;;;12.97;11.67;;;;;;;;;;5056586;28;20230;-82
2022/04/25 00:03:02;;;;;;;14.03;12.53;;;;;;;;;;5057470;28;20733;-82
2022/04/25 00:05:31;;;;;;;12.93;11.17;;;;;;;;;;5056657;28;20241;-82
2022/04/25 00:07:58;;;;;;;14.60;11.27;;;;;;;;;;5056740;28;20674;-83
2022/04/25 00:10:25;;;;;;;12.87;11.33;;;;;;;;;;5056411;28;20230;-83
2022/04/25 00:12:52;;;;;;;13.50;11.53;;;;;;;;;;5056883;28;20230;-83
2022/04/25 00:15:21;;;;;;;11.87;10.67;;;;;;;;;;5056131;28;20244;-83
2022/04/25 00:17:48;;;;;;;14.87;11.20;;;;;;;;;;5056609;28;20209;-83
2022/04/25 00:20:15;;;;;;;13.27;10.90;;;;;;;;;;5056461;28;20308;-84
2022/04/25 00:22:45;;;;;;;13.17;11.17;;;;;;;;;;5057418;28;20233;-84
2022/04/25 00:25:12;;;;;;;13.20;11.03;;;;;;;;;;5056209;28;20237;-83
2022/04/25 00:27:39;;;;;;;13.63;11.67;;;;;;;;;;5057358;28;20250;-83
2022/04/25 00:30:07;;;;;;;12.37;11.07;;;;;;;;;;5056080;28;20234;-84
2022/04/25 00:32:34;;;;;;;13.47;11.70;;;;;;;;;;5055692;28;20229;-83
2022/04/25 00:35:03;;;;;;;13.27;11.57;;;;;;;;;;5057879;28;20603;-84
2022/04/25 00:37:30;;;;;;;16.80;11.77;;;;;;;;;;5059494;28;20212;-83
2022/04/25 00:39:58;;;;;;;13.03;11.67;;;;;;;;;;5059973;28;20239;-83
2022/04/25 00:42:27;;;;;;;15.23;11.43;;;;;;;;;;5059376;28;20214;-83
2022/04/25 00:44:54;;;;;;;13.13;11.67;;;;;;;;;;5056043;28;20236;-83
2022/04/25 00:47:21;;;;;;;13.03;11.10;;;;;;;;;;5056184;28;20217;-83
2022/04/25 00:49:48;;;;;;;13.63;12.13;;;;;;;;;;5055123;28;20283;-83
2022/04/25 00:52:15;;;;;;;13.93;11.97;;;;;;;;;;5056379;28;20229;-83
2022/04/25 00:54:42;;;;;;;12.80;11.50;;;;;;;;;;5056434;28;20233;-83
2022/04/25 00:57:10;;;;;;;14.57;12.63;;;;;;;;;;5057144;28;20237;-83
2022/04/25 00:59:38;;;;;;;13.90;12.40;;;;;;;;;;5055677;28;20226;-83
2022/04/25 01:02:05;;;;;;;14.93;12.83;;;;;;;;;;5056507;28;20198;-83
2022/04/25 01:04:32;;;;;;;14.70;13.10;;;;;;;;;;5052199;28;20238;-83
2022/04/25 01:06:59;;;;;;;14.50;12.30;;;;;;;;;;5048061;28;20210;-83
2022/04/25 01:09:26;;;;;;;15.37;13.43;;;;;;;;;;5050473;28;20233;-83
2022/04/25 01:11:53;;;;;;;17.90;15.00;;;;;;;;;;5056598;28;20240;-83
2022/04/25 01:14:22;;;;;;;16.57;14.77;;;;;;;;;;5056999;28;20901;-84
2022/04/25 01:16:49;;;;;;;16.20;13.60;;;;;;;;;;5057281;28;20212;-83
2022/04/25 01:19:17;;;;;;;15.37;13.67;;;;;;;;;;5056035;28;20255;-83
2022/04/25 01:21:45;;;;;;;15.57;12.33;;;;;;;;;;5056175;28;20205;-83
2022/04/25 01:27:16;;;;;;;11.00;9.90;;;;;;;;;;5056203;28;20518;-83
2022/04/25 01:29:43;;;;;;;13.83;11.20;;;;;;;;;;5055602;28;20232;-83
2022/04/25 01:32:11;;;;;;;14.50;12.60;;;;;;;;;;5056329;28;20237;-83
2022/04/25 01:34:38;;;;;;;14.50;12.93;;;;;;;;;;5055490;28;20237;-83
2022/04/25 01:37:09;;;;;;;15.23;12.03;;;;;;;;;;5056084;28;20208;-83
2022/04/25 01:39:38;;;;;;;15.00;12.27;;;;;;;;;;5055537;28;20279;-83
2022/04/25 01:42:06;;;;;;;14.97;11.40;;;;;;;;;;5056521;28;20220;-83
2022/04/25 01:44:33;;;;;;;14.20;12.27;;;;;;;;;;5056113;28;20241;-83
2022/04/25 01:47:00;;;;;;;20.03;11.50;;;;;;;;;;5056985;28;20637;-83
2022/04/25 01:49:27;;;;;;;12.53;11.07;;;;;;;;;;5055644;28;20575;-83
2022/04/25 01:51:54;;;;;;;15.47;12.77;;;;;;;;;;5056783;28;20612;-84
2022/04/25 01:54:25;;;;;;;13.27;11.87;;;;;;;;;;5055830;28;20234;-83
2022/04/25 01:56:53;;;;;;;15.00;13.03;;;;;;;;;;5055764;28;20209;-83
2022/04/25 01:59:21;;;;;;;14.97;12.30;;;;;;;;;;5055456;28;20234;-83
2022/04/25 02:01:48;;;;;;;15.87;12.07;;;;;;;;;;5055609;28;20680;-82
2022/04/25 02:04:15;;;;;;;13.67;12.00;;;;;;;;;;5055678;28;20286;-84
2022/04/25 02:06:42;;;;;;;15.27;11.70;;;;;;;;;;5056539;28;20204;-83
2022/04/25 02:09:09;;;;;;;12.17;10.53;;;;;;;;;;5055780;28;20202;-84
2022/04/25 02:11:36;;;;;;;14.20;11.23;;;;;;;;;;5064717;28;20236;-84
2022/04/25 02:14:05;;;;;;;14.10;11.97;;;;;;;;;;5073694;28;20251;-84
2022/04/25 02:16:32;;;;;;;14.53;13.03;;;;;;;;;;5074640;28;20212;-83
2022/04/25 02:18:59;;;;;;;18.63;13.83;;;;;;;;;;5068019;28;20681;-83
2022/04/25 02:21:26;;;;;;;17.07;13.67;;;;;;;;;;5056263;28;20201;-83
2022/04/25 02:23:54;;;;;;;14.43;12.67;;;;;;;;;;5055627;28;20237;-83
2022/04/25 02:26:21;;;;;;;16.13;14.10;;;;;;;;;;5055477;28;20239;-83
2022/04/25 02:28:48;;;;;;;17.83;14.67;;;;;;;;;;5055413;28;20213;-83
2022/04/25 02:31:16;;;;;;;17.10;13.37;;;;;;;;;;5054480;28;20242;-83
2022/04/25 02:33:44;;;;;;;18.23;13.40;;;;;;;;;;5054883;28;20330;-84
2022/04/25 02:36:12;;;;;;;16.93;13.67;;;;;;;;;;5054268;28;20248;-83
2022/04/25 02:38:40;;;;;;;13.70;12.17;;;;;;;;;;5054378;28;20215;-83
2022/04/25 02:41:08;;;;;;;14.60;12.37;;;;;;;;;;5054269;28;20232;-83
2022/04/25 02:43:36;;;;;;;14.47;12.30;;;;;;;;;;5054076;28;20289;-83
2022/04/25 02:46:04;;;;;;;13.60;11.50;;;;;;;;;;5054102;28;20245;-83
2022/04/25 02:48:33;;;;;;;14.10;12.63;;;;;;;;;;5055038;28;20881;-83
2022/04/25 02:51:00;;;;;;;13.93;11.47;;;;;;;;;;5054406;28;20226;-83
2022/04/25 02:53:27;;;;;;;14.77;12.53;;;;;;;;;;5054809;28;20236;-83
2022/04/25 02:55:55;;;;;;;14.07;12.37;;;;;;;;;;5054625;28;20248;-84
2022/04/25 02:58:22;;;;;;;17.60;13.87;;;;;;;;;;5054765;28;20730;-83
2022/04/25 03:00:49;;;;;;;18.97;14.63;;;;;;;;;;5054295;28;20305;-83
2022/04/25 03:03:17;;;;;;;16.80;14.40;;;;;;;;;;5054389;28;20233;-83
2022/04/25 03:05:46;;;;;;;19.00;14.87;;;;;;;;;;5054693;28;20244;-84
2022/04/25 03:08:13;;;;;;;21.37;15.97;;;;;;;;;;5055544;28;20212;-83
2022/04/25 03:10:43;;;;;;;22.13;16.07;;;;;;;;;;5054208;28;20263;-84
2022/04/25 03:13:10;;;;;;;18.57;15.50;;;;;;;;;;5054700;28;20736;-82
2022/04/25 03:15:38;;;;;;;19.47;15.73;;;;;;;;;;5054699;28;20598;-83
2022/04/25 03:18:05;;;;;;;16.73;14.63;;;;;;;;;;5055022;28;20212;-83
2022/04/25 03:20:32;;;;;;;18.83;14.57;;;;;;;;;;5054962;28;20230;-82
2022/04/25 03:23:01;;;;;;;17.17;13.77;;;;;;;;;;5055073;28;20595;-82
2022/04/25 03:25:29;;;;;;;17.53;13.77;;;;;;;;;;5055240;28;20260;-83
2022/04/25 03:27:57;;;;;;;15.63;13.63;;;;;;;;;;5055323;28;20202;-82
2022/04/25 03:30:24;;;;;;;15.33;13.07;;;;;;;;;;5055104;28;20232;-83
2022/04/25 03:32:52;;;;;;;15.50;13.17;;;;;;;;;;5056625;28;20236;-83
2022/04/25 03:35:19;;;;;;;19.07;14.77;;;;;;;;;;5056243;28;20262;-82
2022/04/25 03:37:47;;;;;;;15.57;13.57;;;;;;;;;;5055936;28;20210;-82
2022/04/25 03:40:15;;;;;;;15.83;13.50;;;;;;;;;;5056515;28;20247;-83
2022/04/25 03:42:44;;;;;;;17.03;13.33;;;;;;;;;;5057934;28;20226;-82
2022/04/25 03:45:12;;;;;;;15.77;13.10;;;;;;;;;;5056894;28;20589;-83
2022/04/25 03:47:39;;;;;;;15.60;12.87;;;;;;;;;;5056387;28;20207;-82
2022/04/25 03:50:08;;;;;;;15.13;13.43;;;;;;;;;;5056166;28;20231;-83
2022/04/25 03:52:35;;;;;;;16.40;12.63;;;;;;;;;;5056917;28;20231;-81
2022/04/25 03:57:51;;;;;;;14.03;11.77;;;;;;;;;;5059704;28;20189;-81
2022/04/25 04:00:18;;;;;;;14.27;12.03;;;;;;;;;;5061163;28;20243;-82
2022/04/25 04:02:45;;;;;;;16.17;13.17;;;;;;;;;;5062232;28;20227;-81
2022/04/25 04:05:13;;;;;;;16.70;12.77;;;;;;;;;;5063685;28;20242;-81
2022/04/25 04:07:40;;;;;;;15.73;13.23;;;;;;;;;;5063696;28;20215;-82
2022/04/25 04:10:08;;;;;;;21.53;14.03;;;;;;;;;;5056674;28;20330;-82
2022/04/25 04:12:35;;;;;;;17.60;14.67;;;;;;;;;;5057004;28;20247;-82
2022/04/25 04:15:04;;;;;;;16.17;13.50;;;;;;;;;;5056735;28;20259;-82
2022/04/25 04:17:32;;;;;;;14.73;11.73;;;;;;;;;;5057886;28;20607;-82
2022/04/25 04:19:59;;;;;;;12.13;10.70;;;;;;;;;;5055867;28;20237;-82
2022/04/25 04:22:26;;;;;;;11.27;10.10;;;;;;;;;;5058084;28;20211;-81
2022/04/25 04:24:53;;;;;;;11.90;10.63;;;;;;;;;;5066494;28;20234;-81
2022/04/25 04:27:20;;;;;;;14.63;12.03;;;;;;;;;;5067546;28;20208;-82
2022/04/25 04:29:47;;;;;;;14.57;12.27;;;;;;;;;;5067360;28;20238;-81
2022/04/25 04:32:16;;;;;;;16.03;13.20;;;;;;;;;;5067336;28;20230;-82
2022/04/25 04:34:43;;;;;;;15.70;12.80;;;;;;;;;;5068219;28;20227;-82
2022/04/25 04:37:10;;;;;;;19.63;14.67;;;;;;;;;;5067792;28;20206;-81
2022/04/25 04:39:37;;;;;;;19.20;14.77;;;;;;;;;;5067278;28;20234;-83
2022/04/25 04:42:04;;;;;;;23.57;16.30;;;;;;;;;;5067007;28;20211;-81
2022/04/25 04:44:31;;;;;;;21.67;16.83;;;;;;;;;;5066934;28;20240;-82
2022/04/25 04:46:58;;;;;;;23.07;17.13;;;;;;;;;;5067242;28;20214;-81
2022/04/25 04:49:27;;;;;;;22.03;17.43;;;;;;;;;;5065823;28;20230;-82
2022/04/25 04:51:54;;;;;;;20.07;16.30;;;;;;;;;;5066955;28;20229;-81
2022/04/25 04:54:22;;;;;;;24.30;17.77;;;;;;;;;;5066418;28;20247;-82
2022/04/25 04:56:49;;;;;;;27.60;19.73;;;;;;;;;;5066985;28;20205;-81
2022/04/25 04:59:16;;;;;;;26.03;18.60;;;;;;;;;;5066367;28;20229;-82
2022/04/25 05:01:43;;;;;;;21.17;16.97;;;;;;;;;;5065830;28;20221;-81
2022/04/25 05:04:11;;;;;;;23.07;16.67;;;;;;;;;;5065988;28;20254;-81
2022/04/25 05:06:39;;;;;;;22.20;16.73;;;;;;;;;;5066359;28;20678;-84
2022/04/25 05:09:06;;;;;;;26.53;17.90;;;;;;;;;;5065054;28;20208;-82
2022/04/25 05:11:34;;;;;;;28.57;18.87;;;;;;;;;;5063143;28;20210;-78
2022/04/25 05:14:07;;;;;;;27.37;20.67;;;;;;;;;;5053404;28;20232;-78
2022/04/25 05:16:34;;;;;;;28.77;20.97;;;;;;;;;;5053365;28;20229;-79
2022/04/25 05:19:02;;;;;;;30.73;20.63;;;;;;;;;;5052653;28;20587;-78
2022/04/25 05:21:29;;;;;;;31.23;20.97;;;;;;;;;;5053651;28;20206;-78
2022/04/25 05:23:57;;;;;;;35.40;23.30;;;;;;;;;;5053046;28;20741;-78
2022/04/25 05:26:24;;;;;;;33.33;23.43;;;;;;;;;;5053509;28;20217;-79
2022/04/25 05:28:51;;;;;;;41.57;24.87;;;;;;;;;;5053395;28;20555;-78
2022/04/25 05:31:18;;;;;;;46.10;28.10;;;;;;;;;;5052878;28;20710;-79
2022/04/25 05:33:45;;;;;;;47.80;28.67;;;;;;;;;;5053146;28;20238;-78
2022/04/25 05:36:12;;;;;;;48.10;28.50;;;;;;;;;;5052662;28;20252;-79
2022/04/25 05:38:39;;;;;;;56.43;31.10;;;;;;;;;;5052920;28;20209;-78
2022/04/25 05:41:09;;;;;;;53.03;30.27;;;;;;;;;;5052586;28;20246;-80
2022/04/25 05:43:36;;;;;;;63.17;34.67;;;;;;;;;;5053167;28;20223;-78
2022/04/25 05:46:04;;;;;;;56.60;31.13;;;;;;;;;;5052599;28;20245;-78
2022/04/25 05:54:01;;;;;;;68.03;34.80;;;;;;;;;;5062487;28;20312;-80
2022/04/25 05:56:30;;;;;;;60.43;32.77;;;;;;;;;;5067444;28;20216;-80
2022/04/25 05:58:57;;;;;;;64.60;36.23;;;;;;;;;;5066334;28;20232;-80
2022/04/25 06:01:24;;;;;;;61.37;33.60;;;;;;;;;;5064447;28;20666;-79
2022/04/25 06:03:51;;;;;;;61.07;34.37;;;;;;;;;;5060919;28;20303;-79
2022/04/25 06:06:20;;;;;;;58.57;32.70;;;;;;;;;;5060734;28;20248;-80
2022/04/25 06:08:48;;;;;;;62.00;34.47;;;;;;;;;;5061132;28;20237;-81
2022/04/25 06:11:15;;;;;;;59.00;33.00;;;;;;;;;;5060598;28;20241;-79
2022/04/25 06:13:44;;;;;;;64.53;38.50;;;;;;;;;;5060346;28;20721;-80
2022/04/25 06:16:11;;;;;;;58.80;35.63;;;;;;;;;;5058841;28;20317;-81
2022/04/25 06:18:39;;;;;;;65.47;38.57;;;;;;;;;;5058885;28;20206;-79
2022/04/25 06:21:06;;;;;;;64.33;37.90;;;;;;;;;;5058512;28;20240;-81
2022/04/25 06:23:33;;;;;;;62.33;36.27;;;;;;;;;;5059004;28;20313;-79
2022/04/25 06:26:00;;;;;;;61.33;35.50;;;;;;;;;;5057777;28;20234;-82
2022/04/25 06:28:29;;;;;;;61.43;35.57;;;;;;;;;;5059616;28;20209;-79
2022/04/25 06:30:58;;;;;;;54.20;33.20;;;;;;;;;;5060370;28;20935;-79
2022/04/25 06:33:25;;;;;;;52.37;32.93;;;;;;;;;;5060903;28;20233;-79
2022/04/25 06:35:53;;;;;;;53.90;33.60;;;;;;;;;;5059600;28;20241;-80
2022/04/25 06:38:21;;;;;;;47.33;31.83;;;;;;;;;;5061599;28;20233;-84
2022/04/25 06:40:48;;;;;;;44.67;31.40;;;;;;;;;;5065884;28;20234;-80
2022/04/25 06:43:15;;;;;;;38.07;28.90;;;;;;;;;;5066158;28;20241;-80
2022/04/25 06:45:42;;;;;;;42.90;29.07;;;;;;;;;;5065392;28;20238;-81
2022/04/25 06:48:11;;;;;;;39.07;27.57;;;;;;;;;;5064099;28;20210;-79
2022/04/25 06:50:38;;;;;;;38.40;27.60;;;;;;;;;;5058170;28;20234;-79
2022/04/25 06:53:05;;;;;;;41.10;25.63;;;;;;;;;;5057796;28;20714;-81
2022/04/25 06:55:32;;;;;;;31.53;23.43;;;;;;;;;;5056638;28;20715;-81
2022/04/25 06:58:00;;;;;;;27.83;21.50;;;;;;;;;;5055778;28;20232;-80
2022/04/25 07:00:27;;;;;;;26.17;21.17;;;;;;;;;;5055590;28;20244;-80
2022/04/25 07:02:55;;;;;;;27.77;21.90;;;;;;;;;;5057989;28;20225;-79
2022/04/25 07:05:24;;;;;;;26.40;21.33;;;;;;;;;;5056513;28;20238;-79
2022/04/25 07:07:51;;;;;;;23.73;20.20;;;;;;;;;;5055956;28;20260;-80
2022/04/25 07:10:18;;;;;;;24.40;20.13;;;;;;;;;;5055664;28;20234;-79
2022/04/25 07:12:45;;;;;;;22.17;18.37;;;;;;;;;;5054852;28;20709;-79
2022/04/25 07:15:12;;;;;;;22.83;18.63;;;;;;;;;;5055036;28;20234;-80
2022/04/25 07:17:40;;;;;;;23.33;18.53;;;;;;;;;;5057336;28;20206;-80
2022/04/25 07:20:08;;;;;;;25.27;19.87;;;;;;;;;;5063655;28;20249;-80
2022/04/25 07:30:55;;;;;;;20.20;18.00;;;;;;;;;;5060505;28;20268;-80
2022/04/25 07:33:23;;;;;;;20.20;16.97;;;;;;;;;;5060655;28;20253;-80
2022/04/25 07:35:50;;;;;;;19.30;17.30;;;;;;;;;;5060458;28;20264;-82
2022/04/25 07:38:18;;;;;;;19.20;16.33;;;;;;;;;;5060519;28;20225;-81
2022/04/25 07:40:45;;;;;;;20.13;16.30;;;;;;;;;;5058911;28;20713;-79
2022/04/25 07:43:12;;;;;;;17.10;15.17;;;;;;;;;;5062375;28;20218;-81
2022/04/25 07:45:39;;;;;;;16.13;14.43;;;;;;;;;;5064081;28;20235;-79
2022/04/25 07:48:07;;;;;;;17.03;13.60;;;;;;;;;;5065110;28;20209;-83
2022/04/25 07:50:34;;;;;;;15.10;13.13;;;;;;;;;;5061732;28;20238;-78
2022/04/25 07:53:01;;;;;;;15.70;13.97;;;;;;;;;;5062025;28;20241;-81
2022/04/25 07:55:31;;;;;;;16.97;14.20;;;;;;;;;;5065388;28;20245;-80
2022/04/25 07:57:58;;;;;;;14.83;13.00;;;;;;;;;;5067086;28;20240;-81
2022/04/25 08:00:27;;;;;;;13.90;12.50;;;;;;;;;;5067005;28;20252;-81
2022/04/25 08:02:54;;;;;;;14.43;12.33;;;;;;;;;;5067125;28;20218;-81
2022/04/25 08:05:21;;;;;;;12.67;11.30;;;;;;;;;;5065977;28;20237;-83
2022/04/25 08:07:48;;;;;;;14.03;12.20;;;;;;;;;;5067323;28;20206;-81
2022/04/25 08:10:15;;;;;;;14.20;12.27;;;;;;;;;;5066844;28;20244;-81
2022/04/25 08:18:14;;;;;;;13.50;12.00;;;;;;;;;;5068063;28;20205;-84
2022/04/25 08:20:41;;;;;;;12.97;11.57;;;;;;;;;;5069443;28;20237;-82
2022/04/25 08:23:09;;;;;;;11.97;10.77;;;;;;;;;;5072301;28;20226;-82
2022/04/25 08:25:37;;;;;;;11.87;10.67;;;;;;;;;;5071373;28;20259;-81
2022/04/25 08:28:06;;;;;;;11.63;10.43;;;;;;;;;;5071214;28;20213;-82
2022/04/25 08:30:33;;;;;;;12.00;10.73;;;;;;;;;;5071083;28;20238;-82
2022/04/25 08:33:01;;;;;;;11.73;10.60;;;;;;;;;;5070302;28;20233;-83
2022/04/25 08:35:28;;;;;;;11.80;10.40;;;;;;;;;;5054580;28;20233;-80
2022/04/25 08:37:55;;;;;;;13.90;10.77;;;;;;;;;;5063767;28;20217;-82
2022/04/25 08:40:22;;;;;;;11.63;10.40;;;;;;;;;;5060615;28;20234;-80
2022/04/25 08:42:49;;;;;;;11.50;10.30;;;;;;;;;;5059658;28;20225;-79
2022/04/25 08:45:18;;;;;;;10.63;9.53;;;;;;;;;;5061245;28;20230;-80
2022/04/25 08:47:47;;;;;;;13.27;11.73;;;;;;;;;;5062370;28;20702;-79
2022/04/25 08:50:15;;;;;;;10.77;9.63;;;;;;;;;;5062110;28;20238;-82
2022/04/25 08:52:43;;;;;;;10.70;9.60;;;;;;;;;;5062673;28;20740;-80
2022/04/25 08:55:10;;;;;;;11.20;9.93;;;;;;;;;;5065033;28;20241;-80
2022/04/25 08:57:38;;;;;;;9.00;8.10;;;;;;;;;;5066176;28;20674;-81
2022/04/25 09:00:06;;;;;;;9.63;8.68;;;;;;;;;;5065315;28;20234;-81
2022/04/25 09:02:36;;;;;;;12.02;10.07;;;;;;;;;;5066406;28;20213;-81
2022/04/25 09:05:04;;;;;;;9.85;8.85;;;;;;;;;;5066236;28;20240;-81
2022/04/25 09:07:31;;;;;;;9.80;8.80;;;;;;;;;;5065639;28;20671;-82
2022/04/25 09:09:58;;;;;;;9.65;8.70;;;;;;;;;;5066590;28;20237;-81
2022/04/25 09:12:25;;;;;;;9.68;8.68;;;;;;;;;;5066516;28;20258;-83
2022/04/25 09:14:52;;;;;;;9.00;8.15;;;;;;;;;;5065809;28;20238;-81
2022/04/25 09:17:19;;;;;;;9.32;8.43;;;;;;;;;;5067138;28;20277;-82
2022/04/25 09:19:47;;;;;;;9.60;8.70;;;;;;;;;;5068456;28;20233;-82
2022/04/25 09:22:29;;;;;;;7.93;7.22;;;;;;;;;;5070171;28;20202;-83
2022/04/25 09:25:03;;;;;;;10.25;8.32;;;;;;;;;;5069627;28;20234;-82
2022/04/25 09:27:30;;;;;;;8.80;8.00;;;;;;;;;;5069177;28;20209;-81
2022/04/25 09:29:57;;;;;;;7.65;6.95;;;;;;;;;;5069456;28;20236;-84
2022/04/25 09:32:33;;;;;;;8.43;7.63;;;;;;;;;;5068018;28;20217;-81
2022/04/25 09:35:21;;;;;;;8.73;7.82;;;;;;;;;;5068389;28;20252;-82
2022/04/25 09:37:49;;;;;;;8.23;7.40;;;;;;;;;;5068352;28;20213;-83
2022/04/25 09:40:19;;;;;;;7.75;6.45;;;;;;;;;;5063998;28;20264;-82
2022/04/25 09:42:48;;;;;;;8.75;7.30;;;;;;;;;;5064300;28;20236;-81
2022/04/25 09:45:15;;;;;;;8.43;6.75;;;;;;;;;;5064029;28;20237;-81
2022/04/25 09:47:44;;;;;;;9.18;7.72;;;;;;;;;;5063174;28;20202;-82
2022/04/25 09:50:14;;;;;;;8.38;7.32;;;;;;;;;;5063975;28;20297;-81
2022/04/25 09:52:53;;;;;;;7.68;6.88;;;;;;;;;;5064166;28;20230;-81
2022/04/25 09:55:20;;;;;;;7.15;6.45;;;;;;;;;;5063171;28;20308;-84
2022/04/25 09:57:50;;;;;;;8.13;6.20;;;;;;;;;;5062283;28;20216;-83
2022/04/25 10:00:29;;;;;;;4.80;4.40;;;;;;;;;;5054235;28;20230;-85
2022/04/25 10:02:56;;;;;;;4.53;4.18;;;;;;;;;;5053438;28;20235;-82
2022/04/25 10:05:36;;;;;;;5.03;4.53;;;;;;;;;;5053169;28;20241;-82
2022/04/25 10:08:05;;;;;;;5.05;4.63;;;;;;;;;;5053606;28;20190;-82
2022/04/25 10:10:32;;;;;;;5.22;4.82;;;;;;;;;;5053021;28;20240;-82
2022/04/25 10:13:00;;;;;;;5.70;5.20;;;;;;;;;;5061932;28;20591;-82
2022/04/25 10:15:27;;;;;;;6.00;5.40;;;;;;;;;;5052683;28;20242;-81
2022/04/25 10:17:55;;;;;;;6.60;5.80;;;;;;;;;;5053443;28;20216;-82
2022/04/25 10:20:22;;;;;;;6.10;5.60;;;;;;;;;;5053344;28;20242;-82
2022/04/25 10:22:51;;;;;;;5.30;4.80;;;;;;;;;;5053694;28;20238;-82
2022/04/25 10:25:18;;;;;;;4.88;4.47;;;;;;;;;;5053219;28;20234;-82
2022/04/25 10:27:45;;;;;;;13.05;9.30;;;;;;;;;;5053661;28;20210;-82
2022/04/25 10:30:14;;;;;;;13.95;8.25;;;;;;;;;;5052408;28;20612;-81
2022/04/25 10:32:42;;;;;;;5.63;4.50;;;;;;;;;;5053081;28;20287;-82
2022/04/25 10:35:14;;;;;;;9.63;6.22;;;;;;;;;;5052537;28;20261;-82
2022/04/25 10:37:43;;;;;;;5.13;4.72;;;;;;;;;;5052842;28;20645;-82
2022/04/25 10:40:13;;;;;;;5.40;4.88;;;;;;;;;;5052167;28;20321;-82
2022/04/25 10:45:53;;;;;;;4.63;4.22;;;;;;;;;;5052626;28;20250;-82
2022/04/25 10:48:20;;;;;;;4.97;4.10;;;;;;;;;;5052631;28;20194;-82
2022/04/25 10:51:06;;;;;;;4.88;4.43;;;;;;;;;;5052401;28;20233;-82
2022/04/25 10:53:48;;;;;;;4.78;4.38;;;;;;;;;;5052327;28;20280;-82
2022/04/25 10:56:16;;;;;;;5.30;4.90;;;;;;;;;;5051342;28;20238;-82
2022/04/25 10:58:43;;;;;;;5.32;4.82;;;;;;;;;;5052570;28;20213;-82
2022/04/25 11:01:30;;;;;;;4.68;4.28;;;;;;;;;;5051886;28;20242;-81
2022/04/25 11:04:04;;;;;;;5.10;4.60;;;;;;;;;;5052324;28;20733;-82
2022/04/25 11:06:31;;;;;;;5.07;4.40;;;;;;;;;;5052892;28;20190;-82
2022/04/25 11:08:58;;;;;;;4.82;4.38;;;;;;;;;;5067579;28;20225;-82
2022/04/25 11:11:27;;;;;;;3.90;3.60;;;;;;;;;;5070505;28;20210;-82
2022/04/25 11:14:15;;;;;;;5.15;4.68;;;;;;;;;;5070418;28;20232;-82
2022/04/25 11:16:42;;;;;;;4.63;4.22;;;;;;;;;;5048097;28;20713;-83
2022/04/25 11:19:10;;;;;;;7.53;6.22;;;;;;;;;;5052906;28;20588;-82
2022/04/25 11:21:37;;;;;;;4.50;4.20;;;;;;;;;;5052915;28;20227;-82
2022/04/25 11:24:05;;;;;;;4.82;4.43;;;;;;;;;;5052019;28;20312;-81
2022/04/25 11:26:51;;;;;;;4.35;3.95;;;;;;;;;;5052368;28;20700;-81
2022/04/25 11:29:19;;;;;;;4.20;3.90;;;;;;;;;;5051946;28;20236;-82
2022/04/25 11:31:46;;;;;;;4.22;3.92;;;;;;;;;;5052898;28;20662;-82
2022/04/25 11:34:14;;;;;;;5.38;4.30;;;;;;;;;;5051623;28;20598;-82
2022/04/25 11:36:41;;;;;;;25.02;12.32;;;;;;;;;;5052460;28;20206;-82
2022/04/25 11:41:54;;;;;;;4.53;3.92;;;;;;;;;;5052787;28;20185;-82
2022/04/25 11:44:22;;;;;;;4.03;3.72;;;;;;;;;;5052535;28;20264;-83
2022/04/25 11:46:50;;;;;;;3.70;3.40;;;;;;;;;;5052767;28;20210;-82
2022/04/25 11:49:27;;;;;;;4.47;4.07;;;;;;;;;;5052129;28;20309;-83
2022/04/25 11:51:55;;;;;;;4.47;4.07;;;;;;;;;;5052951;28;20221;-83
2022/04/25 11:54:23;;;;;;;4.20;3.80;;;;;;;;;;5052231;28;20234;-83
2022/04/25 11:56:50;;;;;;;4.03;3.72;;;;;;;;;;5052465;28;20217;-83
2022/04/25 11:59:19;;;;;;;5.57;5.07;;;;;;;;;;5051596;28;20226;-82
2022/04/25 12:01:49;;;;;;;4.00;3.70;;;;;;;;;;5051954;28;20241;-83
2022/04/25 12:04:17;;;;;;;4.38;4.00;;;;;;;;;;5051645;28;20242;-82
2022/04/25 12:06:48;;;;;;;4.13;3.83;;;;;;;;;;5052349;28;20210;-82
2022/04/25 12:17:39;;;;;;;3.85;3.53;;;;;;;;;;5052137;28;20556;-83
2022/04/25 12:20:08;;;;;;;4.28;3.92;;;;;;;;;;5050910;28;20244;-83
2022/04/25 12:22:36;;;;;;;4.78;4.38;;;;;;;;;;5051915;28;20313;-83
2022/04/25 12:25:16;;;;;;;5.30;4.05;;;;;;;;;;5051406;28;20276;-83
2022/04/25 12:28:02;;;;;;;4.93;4.10;;;;;;;;;;5054894;28;20201;-84
2022/04/25 12:30:30;;;;;;;3.85;3.53;;;;;;;;;;5054688;28;20249;-83
2022/04/25 12:33:09;;;;;;;4.20;3.90;;;;;;;;;;5055337;28;20238;-83
2022/04/25 12:35:36;;;;;;;4.32;3.92;;;;;;;;;;5055410;28;20244;-83
2022/04/25 12:38:04;;;;;;;4.55;4.15;;;;;;;;;;5055478;28;20252;-83
2022/04/25 12:40:31;;;;;;;5.03;4.43;;;;;;;;;;5054822;28;20291;-83
2022/04/25 12:42:58;;;;;;;4.57;4.18;;;;;;;;;;5055282;28;20290;-83
2022/04/25 12:45:25;;;;;;;4.75;4.35;;;;;;;;;;5054594;28;20234;-83
2022/04/25 12:47:55;;;;;;;4.28;3.85;;;;;;;;;;5054645;28;20217;-83
2022/04/25 12:50:37;;;;;;;5.50;3.78;;;;;;;;;;5054326;28;20252;-83
2022/04/25 12:53:06;;;;;;;4.40;4.00;;;;;;;;;;5055077;28;20237;-84
2022/04/25 12:55:43;;;;;;;4.45;4.05;;;;;;;;;;5054935;28;20238;-83
2022/04/25 12:58:10;;;;;;;4.60;3.70;;;;;;;;;;5055127;28;20704;-83
2022/04/25 13:00:40;;;;;;;4.68;4.20;;;;;;;;;;5054245;28;20734;-83
2022/04/25 13:03:08;;;;;;;4.88;4.43;;;;;;;;;;5055065;28;20233;-83
2022/04/25 13:05:35;;;;;;;4.72;4.30;;;;;;;;;;5054630;28;20234;-83
2022/04/25 13:08:02;;;;;;;4.38;4.00;;;;;;;;;;5055384;28;20213;-83
2022/04/25 13:10:31;;;;;;;4.18;3.78;;;;;;;;;;5054042;28;20230;-83
2022/04/25 13:12:59;;;;;;;4.15;3.75;;;;;;;;;;5055936;28;20629;-83
2022/04/25 13:15:29;;;;;;;2.63;2.50;;;;;;;;;;5054357;28;20253;-83
2022/04/25 13:17:56;;;;;;;2.53;2.33;;;;;;;;;;5055118;28;20206;-83
2022/04/25 13:20:25;;;;;;;2.50;2.30;;;;;;;;;;5054033;28;20238;-82
2022/04/25 13:22:53;;;;;;;2.00;1.90;;;;;;;;;;5054813;28;20598;-83
2022/04/25 13:25:23;;;;;;;1.70;1.60;;;;;;;;;;5054127;28;20710;-83
2022/04/25 13:27:51;;;;;;;2.25;1.80;;;;;;;;;;5055142;28;20237;-82
2022/04/25 13:30:19;;;;;;;3.08;2.83;;;;;;;;;;5053848;28;20725;-83
2022/04/25 13:32:47;;;;;;;5.32;3.38;;;;;;;;;;5055913;28;20246;-83
2022/04/25 13:35:15;;;;;;;2.97;2.70;;;;;;;;;;5059599;28;20241;-84
2022/04/25 13:37:42;;;;;;;2.80;2.60;;;;;;;;;;5054343;28;20256;-84
2022/04/25 13:40:09;;;;;;;4.20;3.10;;;;;;;;;;5053847;28;20709;-85
2022/04/25 13:42:37;;;;;;;2.97;2.78;;;;;;;;;;5054360;28;20237;-84
2022/04/25 13:45:06;;;;;;;2.53;2.33;;;;;;;;;;5054222;28;20257;-84
2022/04/25 13:47:33;;;;;;;2.08;1.98;;;;;;;;;;5054514;28;20210;-85
2022/04/25 13:50:00;;;;;;;2.63;1.88;;;;;;;;;;5053886;28;20729;-84
2022/04/25 13:52:28;;;;;;;1.88;1.77;;;;;;;;;;5054384;28;20206;-84
2022/04/25 13:54:55;;;;;;;1.73;1.63;;;;;;;;;;5054065;28;20710;-85
2022/04/25 13:57:22;;;;;;;2.40;2.20;;;;;;;;;;5054036;28;20217;-83
2022/04/25 13:59:49;;;;;;;2.30;2.13;;;;;;;;;;5053669;28;20244;-84
2022/04/25 14:05:02;;;;;;;2.20;2.10;;;;;;;;;;5053566;28;20244;-81
2022/04/25 14:07:30;;;;;;;1.58;1.50;;;;;;;;;;5053878;28;20209;-81
2022/04/25 14:09:57;;;;;;;2.92;1.52;;;;;;;;;;5053274;28;20233;-83
2022/04/25 14:12:24;;;;;;;2.38;1.52;;;;;;;;;;5053531;28;20213;-81
2022/04/25 14:14:51;;;;;;;1.00;1.00;;;;;;;;;;5053219;28;20230;-81
2022/04/25 14:17:20;;;;;;;1.63;1.52;;;;;;;;;;5053482;28;20210;-81
2022/04/25 14:19:47;;;;;;;1.80;1.70;;;;;;;;;;5052577;28;20691;-81
2022/04/25 14:22:14;;;;;;;1.70;1.60;;;;;;;;;;5053339;28;20202;-81
2022/04/25 14:24:41;;;;;;;1.65;1.55;;;;;;;;;;5052888;28;20232;-81
2022/04/25 14:27:09;;;;;;;1.90;1.80;;;;;;;;;;5053539;28;20206;-81
2022/04/25 14:29:36;;;;;;;2.95;1.80;;;;;;;;;;5052535;28;20297;-82
2022/04/25 14:32:03;;;;;;;1.65;1.55;;;;;;;;;;5052425;28;20659;-81
2022/04/25 14:34:31;;;;;;;2.03;1.73;;;;;;;;;;5057333;28;20736;-83
2022/04/25 14:36:59;;;;;;;1.95;1.70;;;;;;;;;;5053161;28;20202;-81
2022/04/25 14:39:26;;;;;;;2.42;2.22;;;;;;;;;;5052784;28;20229;-81
2022/04/25 14:41:53;;;;;;;2.17;1.92;;;;;;;;;;5053788;28;20206;-81
2022/04/25 14:44:20;;;;;;;1.85;1.67;;;;;;;;;;5052628;28;20240;-82
2022/04/25 14:46:48;;;;;;;2.00;1.85;;;;;;;;;;5053361;28;20205;-82
2022/04/25 14:49:19;;;;;;;2.03;1.90;;;;;;;;;;5052345;28;20248;-81
2022/04/25 14:54:35;;;;;;;2.20;2.10;;;;;;;;;;5052165;28;20703;-82
2022/04/25 14:57:02;;;;;;;2.15;2.05;;;;;;;;;;5053354;28;20201;-82
2022/04/25 14:59:29;;;;;;;3.03;2.05;;;;;;;;;;5052359;28;20237;-82
2022/04/25 15:01:58;;;;;;;2.05;1.90;;;;;;;;;;5053359;28;20202;-81
2022/04/25 15:04:25;;;;;;;2.03;1.90;;;;;;;;;;5052504;28;20252;-81
2022/04/25 15:06:53;;;;;;;2.30;2.20;;;;;;;;;;5052971;28;20206;-81
2022/04/25 15:09:21;;;;;;;2.60;2.40;;;;;;;;;;5052085;28;20237;-81
2022/04/25 15:11:48;;;;;;;2.15;1.98;;;;;;;;;;5052137;28;20288;-82
2022/04/25 15:14:15;;;;;;;2.20;2.10;;;;;;;;;;5051345;28;20249;-82
2022/04/25 15:16:42;;;;;;;7.55;3.25;;;;;;;;;;5052067;28;20551;-82
2022/04/25 15:19:09;;;;;;;2.35;2.25;;;;;;;;;;5051465;28;20213;-82